Sugarloaf Mountain, Maine
Current Conditions -  °F | °C
As of 2:55 AM on Friday 31 Oct 2014 (Local Time) from KWVL Reporting Station
Overcast Overcast  
Wind Chill: 36°   Ceiling: 4600
Heat Index: 39°   Visibility: 10mi
Dew Point: 30°   Wind: 5mph
Humidity: 70%   Direction: 290°WNW
Pressure: 29.98"   Gusts: NA
Location:  45.1°N, 70.2°W
Report Text: KWVL 310655Z 29004KT 10SM OVC046 04/M01 A2998 RMK AO1
Loading
Personal Weather Stations






























Interactive Weather Map
Tropical Storm Tracking
New forecast layout! Learn more

10-Day Weather Forecast

Advertisements
Track Severe Weather on mobile